createdAt,value
2018-11-12T00:00:15.751Z,2.03
2018-11-12T00:02:46.814Z,3.07
2018-11-12T00:05:15.505Z,1.60
2018-11-12T00:07:44.084Z,2.90
2018-11-12T00:10:12.612Z,1.90
2018-11-12T00:12:41.135Z,1.67
2018-11-12T00:15:10.986Z,1.80
2018-11-12T00:17:39.564Z,1.63
2018-11-12T00:20:09.150Z,1.80
2018-11-12T00:22:37.908Z,2.00
2018-11-12T00:25:06.621Z,2.43
2018-11-12T00:27:35.156Z,1.80
2018-11-12T00:30:03.822Z,1.67
2018-11-12T00:32:32.302Z,4.00
2018-11-12T00:35:01.115Z,2.23
2018-11-12T00:37:29.615Z,2.83
2018-11-12T00:39:58.152Z,2.60
2018-11-12T00:42:26.695Z,1.80
2018-11-12T00:44:55.201Z,2.30
2018-11-12T00:47:23.720Z,1.50
2018-11-12T00:49:52.327Z,2.00
2018-11-12T00:52:21.208Z,1.87
2018-11-12T00:54:50.193Z,1.97
2018-11-12T00:57:19.241Z,1.73
2018-11-12T00:59:48.359Z,1.70
2018-11-12T01:02:17.420Z,1.90
2018-11-12T01:04:46.473Z,3.47
2018-11-12T01:07:15.464Z,2.13
2018-11-12T01:09:44.580Z,1.30
2018-11-12T01:12:13.925Z,1.60
2018-11-12T01:14:43.022Z,3.13
2018-11-12T01:17:12.169Z,1.43
2018-11-12T01:19:41.406Z,2.40
2018-11-12T01:22:10.557Z,4.53
2018-11-12T01:24:39.703Z,2.93
2018-11-12T01:27:08.743Z,1.37
2018-11-12T01:29:37.831Z,8.43
2018-11-12T01:32:06.965Z,3.80
2018-11-12T01:34:36.018Z,1.40
2018-11-12T01:37:05.184Z,2.63
2018-11-12T01:39:34.360Z,1.53
2018-11-12T01:42:03.546Z,1.20
2018-11-12T01:44:32.549Z,1.60
2018-11-12T01:47:01.633Z,2.00
2018-11-12T01:49:30.718Z,1.07
2018-11-12T01:51:59.828Z,1.60
2018-11-12T01:54:28.848Z,1.30
2018-11-12T01:56:57.978Z,2.53
2018-11-12T01:59:27.057Z,1.70
2018-11-12T02:01:56.179Z,1.40
2018-11-12T02:04:25.254Z,1.33
2018-11-12T02:06:54.370Z,1.10
2018-11-12T02:09:23.404Z,1.43
2018-11-12T02:11:52.509Z,2.10
2018-11-12T02:14:21.699Z,0.93
2018-11-12T02:16:50.796Z,3.07
2018-11-12T02:19:19.859Z,3.50
2018-11-12T02:21:48.920Z,3.60
2018-11-12T02:24:17.975Z,3.13
2018-11-12T02:26:47.161Z,2.83
2018-11-12T02:29:16.658Z,1.63
2018-11-12T02:31:48.509Z,1.10
2018-11-12T02:34:17.533Z,1.50
2018-11-12T02:36:46.518Z,3.30
2018-11-12T02:39:15.553Z,1.67
2018-11-12T02:41:44.700Z,1.20
2018-11-12T02:44:13.906Z,1.13
2018-11-12T02:46:43.105Z,1.00
2018-11-12T02:49:12.597Z,1.77
2018-11-12T02:51:41.621Z,4.83
2018-11-12T02:54:17.194Z,2.63
2018-11-12T02:56:46.221Z,2.63
2018-11-12T02:59:15.267Z,3.33
2018-11-12T03:01:44.285Z,2.93
2018-11-12T03:04:12.941Z,2.37
2018-11-12T03:06:42.026Z,2.30
2018-11-12T03:09:12.030Z,2.10
2018-11-12T03:11:40.606Z,5.70
2018-11-12T03:14:09.305Z,2.03
2018-11-12T03:16:37.895Z,3.30
2018-11-12T03:19:06.371Z,3.80
2018-11-12T03:21:34.846Z,2.03
2018-11-12T03:24:03.371Z,2.97
2018-11-12T03:26:31.823Z,5.00
2018-11-12T03:29:00.344Z,3.13
2018-11-12T03:31:28.766Z,3.27
2018-11-12T03:33:57.251Z,3.60
2018-11-12T03:36:25.736Z,2.80
2018-11-12T03:38:54.179Z,2.90
2018-11-12T03:41:22.718Z,3.30
2018-11-12T03:43:51.216Z,4.30
2018-11-12T03:46:19.719Z,3.17
2018-11-12T03:48:48.172Z,6.30
2018-11-12T03:51:16.662Z,2.50
2018-11-12T03:53:45.152Z,3.03
2018-11-12T03:56:13.599Z,3.00
2018-11-12T03:58:42.052Z,3.57
2018-11-12T04:01:10.560Z,9.00
2018-11-12T04:03:39.580Z,3.47
2018-11-12T04:06:08.075Z,3.20
2018-11-12T04:08:36.542Z,4.43
2018-11-12T04:11:05.079Z,8.23
2018-11-12T04:13:33.618Z,3.30
2018-11-12T04:16:02.137Z,5.03
2018-11-12T04:18:30.621Z,3.60
2018-11-12T04:20:59.090Z,3.53
2018-11-12T04:23:27.525Z,4.40
2018-11-12T04:25:55.983Z,4.30
2018-11-12T04:28:24.467Z,4.53
2018-11-12T04:30:52.924Z,4.37
2018-11-12T04:33:21.818Z,5.57
2018-11-12T04:35:50.289Z,4.53
2018-11-12T04:38:18.796Z,3.77
2018-11-12T04:40:47.286Z,4.13
2018-11-12T04:43:15.750Z,3.80
2018-11-12T04:45:44.296Z,3.87
2018-11-12T04:48:12.750Z,3.50
2018-11-12T04:50:41.282Z,5.03
2018-11-12T04:53:09.727Z,3.47
2018-11-12T04:55:38.223Z,4.03
2018-11-12T04:58:06.677Z,4.00
2018-11-12T05:00:35.183Z,5.17
2018-11-12T05:03:03.807Z,4.97
2018-11-12T05:05:32.297Z,3.90
2018-11-12T05:08:00.751Z,6.30
2018-11-12T05:10:29.260Z,3.93
2018-11-12T05:12:57.800Z,6.07
2018-11-12T05:15:26.675Z,5.10
2018-11-12T05:17:55.305Z,4.20
2018-11-12T05:20:25.240Z,4.27
2018-11-12T05:22:53.746Z,4.27
2018-11-12T05:25:23.602Z,5.50
2018-11-12T05:27:52.090Z,4.33
2018-11-12T05:30:21.786Z,4.30
2018-11-12T05:32:50.263Z,3.70
2018-11-12T05:35:20.488Z,3.83
2018-11-12T05:37:49.001Z,3.50
2018-11-12T05:40:18.808Z,3.83
2018-11-12T05:42:47.310Z,3.90
2018-11-12T05:45:16.917Z,3.63
2018-11-12T05:47:45.395Z,3.87
2018-11-12T05:50:15.906Z,3.97
2018-11-12T05:52:45.554Z,4.77
2018-11-12T05:55:15.614Z,3.67
2018-11-12T05:57:44.779Z,5.17
2018-11-12T06:00:14.415Z,4.13
2018-11-12T06:02:43.158Z,3.60
2018-11-12T06:05:12.814Z,3.10
2018-11-12T06:07:41.373Z,3.03
2018-11-12T06:10:16.082Z,3.43
2018-11-12T06:12:44.953Z,3.00
2018-11-12T06:15:13.969Z,2.67
2018-11-12T06:17:43.151Z,2.90
2018-11-12T06:20:16.304Z,2.70
2018-11-12T06:22:44.833Z,2.93
2018-11-12T06:25:14.826Z,3.87
2018-11-12T06:27:43.343Z,2.57
2018-11-12T06:30:14.182Z,2.30
2018-11-12T06:32:42.864Z,2.67
2018-11-12T06:35:12.187Z,2.70
2018-11-12T06:37:41.085Z,2.80
2018-11-12T06:40:11.425Z,3.03
2018-11-12T06:42:40.013Z,2.70
2018-11-12T06:45:16.545Z,2.57
2018-11-12T06:47:49.488Z,2.37
2018-11-12T06:50:21.137Z,2.50
2018-11-12T06:52:49.686Z,2.80
2018-11-12T06:55:18.788Z,2.53
2018-11-12T06:57:47.779Z,3.43
2018-11-12T07:00:22.893Z,2.60
2018-11-12T07:02:51.724Z,2.20
2018-11-12T07:05:20.460Z,4.03
2018-11-12T07:07:48.948Z,2.10
2018-11-12T07:10:18.755Z,2.00
2018-11-12T07:12:48.139Z,2.20
2018-11-12T07:15:17.823Z,5.83
2018-11-12T07:17:46.357Z,3.23
2018-11-12T07:20:16.276Z,4.13
2018-11-12T07:22:44.915Z,4.83
2018-11-12T07:25:14.289Z,2.93
2018-11-12T07:27:42.774Z,2.40
2018-11-12T07:30:15.947Z,2.37
2018-11-12T07:32:44.797Z,2.43
2018-11-12T07:35:14.317Z,3.93
2018-11-12T07:37:44.155Z,3.57
2018-11-12T07:40:13.371Z,5.30
2018-11-12T07:42:42.138Z,3.37
2018-11-12T07:45:13.199Z,2.40
2018-11-12T07:47:42.968Z,3.23
2018-11-12T07:50:13.385Z,4.30
2018-11-12T07:52:42.008Z,4.03
2018-11-12T07:55:13.080Z,3.70
2018-11-12T07:57:42.039Z,2.67
2018-11-12T08:00:14.437Z,3.73
2018-11-12T08:02:43.905Z,3.23
2018-11-12T08:05:13.141Z,6.87
2018-11-12T08:07:42.406Z,4.60
2018-11-12T08:10:12.834Z,3.10
2018-11-12T08:12:41.984Z,3.60
2018-11-12T08:15:11.924Z,4.93
2018-11-12T08:17:40.533Z,2.63
2018-11-12T08:20:11.311Z,2.90
2018-11-12T08:22:39.824Z,3.43
2018-11-12T08:25:09.615Z,3.20
2018-11-12T08:27:38.260Z,4.03
2018-11-12T08:30:09.335Z,4.57
2018-11-12T08:32:37.829Z,3.03
2018-11-12T08:35:06.315Z,3.07
2018-11-12T08:37:34.819Z,2.70
2018-11-12T08:40:03.548Z,3.13
2018-11-12T08:42:33.025Z,2.50
2018-11-12T08:45:01.777Z,4.27
2018-11-12T08:47:30.327Z,3.23
2018-11-12T08:49:58.931Z,3.97
2018-11-12T08:52:27.434Z,3.90
2018-11-12T08:54:55.965Z,2.63
2018-11-12T08:57:24.546Z,2.63
2018-11-12T08:59:53.009Z,2.47
2018-11-12T09:02:21.490Z,3.10
2018-11-12T09:04:49.973Z,4.47
2018-11-12T09:07:18.735Z,3.23
2018-11-12T09:09:47.032Z,2.03
2018-11-12T09:12:15.517Z,1.90
2018-11-12T09:14:43.988Z,2.37
2018-11-12T09:17:12.503Z,2.00
2018-11-12T09:19:41.086Z,2.00
2018-11-12T09:22:09.611Z,6.53
2018-11-12T09:24:38.074Z,4.23
2018-11-12T09:27:06.655Z,2.13
2018-11-12T09:29:35.153Z,3.73
2018-11-12T09:32:03.660Z,4.67
2018-11-12T09:34:32.201Z,2.20
2018-11-12T09:37:00.683Z,2.47
2018-11-12T09:39:29.244Z,4.33
2018-11-12T09:41:57.713Z,2.67
2018-11-12T09:44:26.268Z,2.23
2018-11-12T09:46:54.740Z,2.07
2018-11-12T09:49:23.225Z,2.53
2018-11-12T09:51:51.758Z,4.30
2018-11-12T09:54:20.339Z,2.60
2018-11-12T09:56:48.827Z,3.23
2018-11-12T09:59:17.384Z,4.30
2018-11-12T10:01:46.528Z,2.70
2018-11-12T10:04:14.664Z,2.57
2018-11-12T10:06:44.776Z,1.70
2018-11-12T10:09:16.036Z,2.70
2018-11-12T10:11:43.553Z,2.40
2018-11-12T10:14:12.868Z,3.27
2018-11-12T10:16:42.467Z,3.00
2018-11-12T10:19:07.826Z,2.57
2018-11-12T10:21:36.318Z,2.63
2018-11-12T10:24:04.846Z,4.57
2018-11-12T10:26:33.403Z,3.20
2018-11-12T10:29:01.986Z,4.50
2018-11-12T10:31:30.457Z,3.07
2018-11-12T10:33:58.921Z,2.77
2018-11-12T10:36:27.414Z,5.13
2018-11-12T10:38:55.890Z,2.47
2018-11-12T10:41:24.512Z,3.67
2018-11-12T10:43:52.980Z,3.80
2018-11-12T10:46:21.497Z,2.60
2018-11-12T10:48:50.015Z,3.00
2018-11-12T10:51:18.531Z,2.57
2018-11-12T10:53:50.208Z,3.70
2018-11-12T10:56:15.520Z,4.47
2018-11-12T10:58:44.027Z,3.33
2018-11-12T11:01:20.011Z,3.50
2018-11-12T11:03:58.510Z,3.30
2018-11-12T11:06:27.024Z,4.50
2018-11-12T11:08:55.535Z,4.07
2018-11-12T11:11:24.104Z,4.00
2018-11-12T11:13:52.600Z,3.20
2018-11-12T11:16:21.100Z,3.77
2018-11-12T11:18:49.609Z,4.33
2018-11-12T11:21:18.235Z,9.53
2018-11-12T11:23:46.607Z,6.87
2018-11-12T11:26:15.273Z,5.87
2018-11-12T11:28:44.540Z,5.17
2018-11-12T11:31:13.061Z,6.90
2018-11-12T11:33:41.523Z,4.97
2018-11-12T11:36:10.073Z,6.20
2018-11-12T11:38:38.569Z,5.20
2018-11-12T11:41:07.140Z,4.90
2018-11-12T11:43:35.917Z,5.43
2018-11-12T11:46:04.510Z,5.07
2018-11-12T11:48:33.028Z,5.17
2018-11-12T11:51:01.699Z,4.93
2018-11-12T11:53:30.237Z,10.23
2018-11-12T11:55:58.783Z,6.07
2018-11-12T11:58:27.612Z,5.90
2018-11-12T12:00:56.318Z,7.10
2018-11-12T12:03:25.569Z,6.47
2018-11-12T12:05:54.486Z,6.03
2018-11-12T12:08:23.016Z,6.13
2018-11-12T12:10:51.542Z,6.77
2018-11-12T12:13:20.288Z,6.70
2018-11-12T12:15:48.816Z,7.00
2018-11-12T12:18:17.343Z,6.93
2018-11-12T12:20:45.888Z,8.57
2018-11-12T12:23:14.403Z,7.80
2018-11-12T12:25:43.015Z,9.13
2018-11-12T12:28:11.412Z,8.63
2018-11-12T12:30:39.951Z,8.43
2018-11-12T12:33:08.456Z,8.07
2018-11-12T12:35:37.093Z,8.60
2018-11-12T12:38:05.725Z,8.10
2018-11-12T12:40:34.310Z,8.30
2018-11-12T12:43:02.788Z,9.83
2018-11-12T12:45:31.457Z,9.03
2018-11-12T12:47:59.873Z,8.67
2018-11-12T12:50:28.407Z,13.83
2018-11-12T12:52:56.869Z,10.60
2018-11-12T12:55:25.447Z,10.73
2018-11-12T12:57:53.892Z,14.53
2018-11-12T13:00:23.859Z,12.40
2018-11-12T13:02:52.341Z,11.53
2018-11-12T13:05:20.856Z,11.93
2018-11-12T13:07:49.403Z,15.13
2018-11-12T13:10:19.233Z,11.97
2018-11-12T13:12:47.763Z,12.10
2018-11-12T13:15:17.553Z,11.33
2018-11-12T13:17:46.856Z,12.57
2018-11-12T13:20:17.185Z,12.67
2018-11-12T13:22:46.346Z,13.03
2018-11-12T13:25:15.086Z,13.03
2018-11-12T13:27:44.266Z,13.60
2018-11-12T13:30:14.617Z,14.77
2018-11-12T13:32:43.677Z,11.97
2018-11-12T13:35:14.715Z,12.37
2018-11-12T13:37:43.275Z,13.43
2018-11-12T13:40:15.083Z,10.87
2018-11-12T13:42:45.107Z,14.70
2018-11-12T13:45:13.645Z,10.60
2018-11-12T13:47:42.155Z,13.90
2018-11-12T13:50:14.808Z,10.07
2018-11-12T13:52:43.423Z,11.10
2018-11-12T13:55:13.144Z,9.80
2018-11-12T13:57:41.665Z,9.80
2018-11-12T14:00:21.061Z,11.50
2018-11-12T14:02:50.291Z,11.13
2018-11-12T14:05:20.000Z,9.90
2018-11-12T14:07:48.744Z,14.43
2018-11-12T14:10:18.478Z,14.10
2018-11-12T14:12:47.375Z,13.20
2018-11-12T14:15:18.382Z,11.90
2018-11-12T14:17:47.320Z,12.97
2018-11-12T14:20:15.895Z,11.70
2018-11-12T14:22:44.395Z,11.83
2018-11-12T14:25:14.351Z,10.37
2018-11-12T14:27:43.083Z,10.77
2018-11-12T14:30:13.666Z,10.77
2018-11-12T14:32:42.168Z,9.43
2018-11-12T14:35:11.699Z,10.33
2018-11-12T14:37:40.828Z,10.03
2018-11-12T14:40:10.306Z,12.07
2018-11-12T14:42:38.912Z,10.50
2018-11-12T14:45:08.914Z,12.40
2018-11-12T14:47:37.415Z,12.87
2018-11-12T14:50:06.090Z,10.60
2018-11-12T14:52:34.678Z,17.80
2018-11-12T14:55:03.215Z,33.43
2018-11-12T14:57:31.668Z,12.80
2018-11-12T15:00:00.435Z,14.20
2018-11-12T15:02:29.266Z,13.70
2018-11-12T15:04:57.837Z,13.60
2018-11-12T15:07:26.337Z,17.40
2018-11-12T15:09:54.836Z,19.57
2018-11-12T15:12:23.287Z,12.50
2018-11-12T15:14:52.121Z,14.17
2018-11-12T15:17:20.534Z,15.83
2018-11-12T15:19:49.031Z,15.93
2018-11-12T15:22:17.930Z,18.33
2018-11-12T15:24:46.419Z,15.97
2018-11-12T15:27:14.947Z,18.53
2018-11-12T15:29:43.419Z,14.93
2018-11-12T15:32:11.955Z,17.27
2018-11-12T15:34:41.286Z,14.77
2018-11-12T15:37:09.943Z,16.57
2018-11-12T15:39:38.602Z,26.13
2018-11-12T15:42:07.364Z,17.57
2018-11-12T15:44:36.678Z,14.33
2018-11-12T15:47:05.564Z,13.27
2018-11-12T15:49:34.602Z,12.80
2018-11-12T15:52:03.753Z,12.53
2018-11-12T15:54:32.932Z,19.07
2018-11-12T15:57:01.496Z,14.40
2018-11-12T15:59:30.691Z,14.67
2018-11-12T16:01:59.410Z,12.60
2018-11-12T16:04:27.993Z,14.73
2018-11-12T16:06:56.495Z,14.70
2018-11-12T16:09:25.611Z,12.07
2018-11-12T16:11:54.234Z,15.03
2018-11-12T16:14:22.719Z,12.53
2018-11-12T16:16:51.258Z,15.53
2018-11-12T16:19:19.969Z,12.73
2018-11-12T16:21:48.563Z,12.57
2018-11-12T16:24:17.080Z,12.50
2018-11-12T16:26:45.609Z,12.97
2018-11-12T16:29:14.115Z,12.43
2018-11-12T16:31:42.599Z,16.00
2018-11-12T16:34:11.127Z,13.03
2018-11-12T16:36:39.611Z,15.00
2018-11-12T16:39:09.891Z,13.60
2018-11-12T16:41:39.146Z,15.47
2018-11-12T16:44:08.181Z,19.57
2018-11-12T16:46:36.783Z,17.67
2018-11-12T16:49:07.601Z,21.43
2018-11-12T16:51:36.187Z,20.53
2018-11-12T16:54:04.848Z,19.83
2018-11-12T16:56:33.439Z,21.43
2018-11-12T16:59:01.923Z,20.23
2018-11-12T17:01:30.987Z,20.50
2018-11-12T17:03:59.505Z,21.17
2018-11-12T17:06:28.297Z,28.30
2018-11-12T17:08:56.778Z,18.00
2018-11-12T17:11:25.373Z,27.63
2018-11-12T17:13:54.143Z,24.03
2018-11-12T17:16:22.717Z,29.97
2018-11-12T17:18:52.164Z,35.77
2018-11-12T17:21:21.081Z,27.00
2018-11-12T17:23:49.711Z,27.13
2018-11-12T17:26:18.242Z,21.60
2018-11-12T17:28:46.769Z,27.90
2018-11-12T17:31:16.228Z,27.63
2018-11-12T17:33:44.728Z,21.67
2018-11-12T17:36:13.405Z,23.97
2018-11-12T17:38:41.929Z,22.93
2018-11-12T17:41:10.485Z,25.90
2018-11-12T17:43:38.961Z,28.80
2018-11-12T17:46:07.475Z,21.63
2018-11-12T17:48:35.935Z,19.40
2018-11-12T17:51:07.359Z,17.53
2018-11-12T17:53:35.905Z,26.35
2018-11-12T17:56:04.456Z,20.03
2018-11-12T17:58:32.943Z,17.63
2018-11-12T18:01:01.494Z,20.93
2018-11-12T18:03:29.941Z,23.33
2018-11-12T18:05:58.403Z,19.30
2018-11-12T18:08:26.893Z,22.10
2018-11-12T18:10:55.402Z,20.73
2018-11-12T18:13:24.005Z,22.07
2018-11-12T18:15:52.470Z,22.23
2018-11-12T18:18:21.092Z,20.47
2018-11-12T18:20:49.662Z,20.53
2018-11-12T18:23:18.349Z,20.27
2018-11-12T18:25:46.959Z,19.93
2018-11-12T18:28:15.462Z,18.17
2018-11-12T18:30:44.190Z,18.20
2018-11-12T18:33:12.522Z,16.57
2018-11-12T18:35:41.209Z,18.73
2018-11-12T18:38:09.826Z,17.63
2018-11-12T18:40:38.322Z,18.03
2018-11-12T18:43:07.153Z,17.60
2018-11-12T18:45:35.673Z,17.53
2018-11-12T18:48:04.219Z,20.10
2018-11-12T18:50:32.816Z,19.13
2018-11-12T18:53:01.285Z,19.53
2018-11-12T18:55:29.856Z,18.87
2018-11-12T18:57:58.983Z,22.00
2018-11-12T19:00:27.758Z,22.13
2018-11-12T19:02:56.377Z,21.93
2018-11-12T19:05:26.368Z,25.20
2018-11-12T19:07:56.725Z,23.47
2018-11-12T19:10:26.987Z,25.90
2018-11-12T19:12:55.598Z,23.37
2018-11-12T19:15:26.020Z,22.20
2018-11-12T19:17:56.988Z,26.37
2018-11-12T19:20:25.593Z,20.27
2018-11-12T19:22:54.732Z,20.40
2018-11-12T19:25:23.324Z,22.83
2018-11-12T19:27:51.820Z,23.43
2018-11-12T19:30:21.742Z,26.80
2018-11-12T19:32:51.433Z,20.87
2018-11-12T19:35:21.807Z,24.10
2018-11-12T19:37:50.326Z,22.43
2018-11-12T19:40:20.180Z,21.30
2018-11-12T19:42:49.767Z,24.13
2018-11-12T19:45:18.351Z,23.13
2018-11-12T19:47:48.230Z,24.63
2018-11-12T19:50:18.745Z,25.27
2018-11-12T19:52:48.578Z,24.93
2018-11-12T19:55:17.199Z,22.33
2018-11-12T19:57:46.375Z,22.03
2018-11-12T20:00:17.076Z,26.17
2018-11-12T20:02:46.833Z,27.47
2018-11-12T20:05:15.346Z,30.43
2018-11-12T20:07:44.297Z,26.67
2018-11-12T20:10:14.500Z,27.30
2018-11-12T20:12:43.051Z,27.30
2018-11-12T20:15:12.794Z,26.83
2018-11-12T20:17:42.266Z,27.67
2018-11-12T20:20:15.532Z,25.50
2018-11-12T20:22:44.737Z,25.77
2018-11-12T20:25:14.249Z,26.27
2018-11-12T20:27:43.307Z,25.87
2018-11-12T20:30:15.646Z,26.83
2018-11-12T20:32:44.396Z,22.63
2018-11-12T20:35:12.917Z,24.83
2018-11-12T20:37:41.512Z,28.50
2018-11-12T20:40:11.267Z,27.57
2018-11-12T20:42:40.360Z,28.80
2018-11-12T20:45:10.493Z,25.63
2018-11-12T20:47:39.723Z,24.30
2018-11-12T20:50:09.061Z,25.40
2018-11-12T20:52:37.727Z,29.40
2018-11-12T20:55:07.371Z,26.60
2018-11-12T20:57:35.992Z,26.90
2018-11-12T21:00:04.967Z,26.57
2018-11-12T21:02:33.568Z,28.07
2018-11-12T21:05:02.022Z,27.07
2018-11-12T21:07:30.530Z,26.17
2018-11-12T21:09:58.989Z,27.50
2018-11-12T21:12:29.451Z,24.77
2018-11-12T21:14:58.036Z,25.37
2018-11-12T21:17:26.621Z,27.97
2018-11-12T21:19:55.332Z,23.73
2018-11-12T21:22:23.884Z,32.20
2018-11-12T21:24:52.464Z,24.17
2018-11-12T21:27:20.971Z,25.37
2018-11-12T21:29:49.486Z,25.13
2018-11-12T21:32:18.025Z,24.13
2018-11-12T21:34:46.613Z,24.70
2018-11-12T21:37:15.200Z,22.03
2018-11-12T21:39:43.714Z,22.77
2018-11-12T21:42:12.255Z,20.63
2018-11-12T21:44:40.913Z,22.83
2018-11-12T21:47:09.446Z,22.57
2018-11-12T21:49:37.916Z,22.60
2018-11-12T21:52:06.448Z,20.97
2018-11-12T21:54:34.950Z,18.30
2018-11-12T21:57:03.475Z,19.73
2018-11-12T21:59:32.001Z,21.87
2018-11-12T22:02:00.904Z,18.23
2018-11-12T22:04:29.425Z,17.60
2018-11-12T22:06:57.938Z,18.00
2018-11-12T22:09:26.464Z,19.07
2018-11-12T22:11:54.966Z,19.83
2018-11-12T22:14:23.556Z,19.23
2018-11-12T22:16:52.111Z,22.00
2018-11-12T22:19:20.737Z,17.43
2018-11-12T22:21:49.173Z,20.27
2018-11-12T22:24:17.695Z,19.40
2018-11-12T22:26:46.213Z,19.40
2018-11-12T22:29:14.673Z,18.30
2018-11-12T22:31:43.237Z,23.70
2018-11-12T22:34:11.758Z,16.10
2018-11-12T22:36:40.709Z,16.97
2018-11-12T22:39:10.255Z,20.43
2018-11-12T22:41:38.743Z,21.27
2018-11-12T22:44:07.247Z,18.10
2018-11-12T22:46:35.734Z,18.07
2018-11-12T22:49:04.306Z,17.00
2018-11-12T22:51:32.801Z,19.60
2018-11-12T22:54:01.430Z,18.90
2018-11-12T22:56:29.813Z,20.93
2018-11-12T22:58:58.339Z,22.93
2018-11-12T23:01:26.825Z,23.20
2018-11-12T23:03:55.378Z,22.53
2018-11-12T23:06:23.917Z,20.20
2018-11-12T23:08:52.426Z,22.03
2018-11-12T23:11:20.905Z,25.70
2018-11-12T23:13:49.619Z,21.87
2018-11-12T23:16:18.101Z,28.67
2018-11-12T23:18:46.578Z,22.23
2018-11-12T23:21:15.114Z,24.37
2018-11-12T23:23:43.672Z,23.13
2018-11-12T23:26:12.776Z,23.17
2018-11-12T23:28:41.457Z,29.73
2018-11-12T23:31:10.077Z,25.63
2018-11-12T23:33:38.827Z,29.53
2018-11-12T23:36:07.428Z,29.63
2018-11-12T23:38:36.074Z,32.50
2018-11-12T23:41:04.576Z,33.30
2018-11-12T23:43:33.152Z,29.23
2018-11-12T23:46:01.853Z,31.07
2018-11-12T23:48:30.409Z,32.93
2018-11-12T23:50:58.973Z,31.47
2018-11-12T23:53:27.566Z,26.30
2018-11-12T23:55:56.250Z,35.93
2018-11-12T23:58:24.875Z,32.77
